createdAt,value
2022-08-25T00:02:56.719Z,48.46
2022-08-25T00:05:59.360Z,47.58
2022-08-25T00:09:00.824Z,48.46
2022-08-25T00:12:03.769Z,47.78
2022-08-25T00:15:05.914Z,47.52
2022-08-25T00:18:11.350Z,48.58
2022-08-25T00:21:23.656Z,48.27
2022-08-25T00:24:25.287Z,48.31
2022-08-25T00:27:27.472Z,48.45
2022-08-25T00:30:28.894Z,49.04
2022-08-25T00:33:33.434Z,48.62
2022-08-25T00:36:35.564Z,49.77
2022-08-25T00:39:38.695Z,49.48
2022-08-25T00:42:41.144Z,49.27
2022-08-25T00:45:42.549Z,49.47
2022-08-25T00:48:47.374Z,49.68
2022-08-25T00:52:12.102Z,50.05
2022-08-25T00:55:30.328Z,50.46
2022-08-25T00:58:34.294Z,50.59
2022-08-25T01:01:35.988Z,51.25
2022-08-25T01:04:37.694Z,51.64
2022-08-25T01:07:41.220Z,51.71
2022-08-25T01:10:47.934Z,51.45
2022-08-25T01:13:53.672Z,51.46
2022-08-25T01:16:55.125Z,51.30
2022-08-25T01:19:56.577Z,51.76
2022-08-25T01:22:59.424Z,52.37
2022-08-25T01:26:08.840Z,52.80
2022-08-25T01:29:25.133Z,52.18
2022-08-25T01:32:26.549Z,52.05
2022-08-25T01:35:27.996Z,52.45
2022-08-25T01:38:29.506Z,52.83
2022-08-25T01:41:33.858Z,53.72
2022-08-25T01:44:39.145Z,53.30
2022-08-25T01:47:40.579Z,53.51
2022-08-25T01:50:43.849Z,53.64
2022-08-25T01:53:45.313Z,53.86
2022-08-25T01:56:46.844Z,54.51
2022-08-25T01:59:48.292Z,54.69
2022-08-25T02:02:52.322Z,54.61
2022-08-25T02:05:57.753Z,55.29
2022-08-25T02:09:05.126Z,54.88
2022-08-25T02:12:06.947Z,54.47
2022-08-25T02:15:09.275Z,55.01
2022-08-25T02:18:11.554Z,55.40
2022-08-25T02:21:14.181Z,54.74
2022-08-25T02:24:16.350Z,55.62
2022-08-25T02:27:17.806Z,54.94
2022-08-25T02:30:19.680Z,54.74
2022-08-25T02:33:22.207Z,54.90
2022-08-25T02:36:23.852Z,55.28
2022-08-25T02:39:25.269Z,55.46
2022-08-25T02:42:27.718Z,55.50
2022-08-25T02:45:29.594Z,55.64
2022-08-25T02:48:31.117Z,54.89
2022-08-25T02:51:33.689Z,55.31
2022-08-25T02:54:35.655Z,55.67
2022-08-25T02:57:37.061Z,55.60
2022-08-25T03:00:38.483Z,56.58
2022-08-25T03:03:43.618Z,56.30
2022-08-25T03:06:45.672Z,56.09
2022-08-25T03:09:48.113Z,56.56
2022-08-25T03:12:49.621Z,57.08
2022-08-25T03:15:51.049Z,56.85
2022-08-25T03:18:53.154Z,57.30
2022-08-25T03:21:56.796Z,57.84
2022-08-25T03:25:23.475Z,58.23
2022-08-25T03:28:29.966Z,58.48
2022-08-25T03:31:33.664Z,57.69
2022-08-25T03:34:35.127Z,59.23
2022-08-25T03:37:37.224Z,59.61
2022-08-25T03:40:38.683Z,58.65
2022-08-25T03:43:40.174Z,59.30
2022-08-25T03:46:44.973Z,59.40
2022-08-25T03:49:46.534Z,59.63
2022-08-25T03:52:56.384Z,60.17
2022-08-25T03:55:57.868Z,59.58
2022-08-25T03:58:59.304Z,60.08
2022-08-25T04:02:01.717Z,60.68
2022-08-25T04:05:03.767Z,60.45
2022-08-25T04:08:06.842Z,61.40
2022-08-25T04:11:11.127Z,62.16
2022-08-25T04:14:15.862Z,61.22
2022-08-25T04:17:18.662Z,62.10
2022-08-25T04:20:20.094Z,61.96
2022-08-25T04:23:21.523Z,61.60
2022-08-25T04:26:33.366Z,62.96
2022-08-25T04:29:35.107Z,62.81
2022-08-25T04:32:37.308Z,62.50
2022-08-25T04:35:39.249Z,63.85
2022-08-25T04:38:43.972Z,64.28
2022-08-25T04:41:45.728Z,65.19
2022-08-25T04:44:47.140Z,65.59
2022-08-25T04:47:51.764Z,65.71
2022-08-25T04:50:56.218Z,66.49
2022-08-25T04:54:03.216Z,65.23
2022-08-25T04:57:05.131Z,65.13
2022-08-25T05:00:07.322Z,64.18
2022-08-25T05:03:09.264Z,65.17
2022-08-25T05:06:15.701Z,64.03
2022-08-25T05:09:19.837Z,64.12
2022-08-25T05:12:23.264Z,64.37
2022-08-25T05:15:44.942Z,63.37
2022-08-25T05:18:48.113Z,64.62
2022-08-25T05:21:49.706Z,65.03
2022-08-25T05:24:51.131Z,64.55
2022-08-25T05:27:52.585Z,64.09
2022-08-25T05:30:58.788Z,65.02
2022-08-25T05:34:00.405Z,65.32
2022-08-25T05:37:03.278Z,64.27
2022-08-25T05:40:06.531Z,65.48
2022-08-25T05:43:08.014Z,64.26
2022-08-25T05:46:10.369Z,63.34
2022-08-25T05:49:11.866Z,63.41
2022-08-25T05:52:18.064Z,62.95
2022-08-25T05:55:21.636Z,62.76
2022-08-25T05:58:23.955Z,63.81
2022-08-25T06:01:47.238Z,63.30
2022-08-25T06:04:48.736Z,62.17
2022-08-25T06:07:52.197Z,61.67
2022-08-25T06:10:53.636Z,61.97
2022-08-25T06:13:55.246Z,61.65
2022-08-25T06:16:56.919Z,61.62
2022-08-25T06:19:58.320Z,61.58
2022-08-25T06:23:00.632Z,61.61
2022-08-25T06:26:02.472Z,61.70
2022-08-25T06:29:04.885Z,61.54
2022-08-25T06:32:06.418Z,61.18
2022-08-25T06:35:10.902Z,60.85
2022-08-25T06:38:12.443Z,61.03
2022-08-25T06:41:14.564Z,60.48
2022-08-25T06:44:16.058Z,61.19
2022-08-25T06:47:18.465Z,60.79
2022-08-25T06:50:20.148Z,61.89
2022-08-25T06:53:21.552Z,61.26
2022-08-25T06:56:23.037Z,60.72
2022-08-25T06:59:25.728Z,60.48
2022-08-25T07:02:35.468Z,60.21
2022-08-25T07:05:44.266Z,59.08
2022-08-25T07:08:47.926Z,58.54
2022-08-25T07:11:49.489Z,57.90
2022-08-25T07:15:10.050Z,58.55
2022-08-25T07:18:13.196Z,58.29
2022-08-25T07:21:15.099Z,58.39
2022-08-25T07:24:16.681Z,58.61
2022-08-25T07:27:18.351Z,58.64
2022-08-25T07:30:19.844Z,58.21
2022-08-25T07:33:21.869Z,58.03
2022-08-25T07:36:23.397Z,56.76
2022-08-25T07:39:26.814Z,56.32
2022-08-25T07:42:30.571Z,56.11
2022-08-25T07:45:35.102Z,55.63
2022-08-25T07:48:36.912Z,55.91
2022-08-25T07:51:38.344Z,56.89
2022-08-25T07:55:00.006Z,56.74
2022-08-25T07:58:02.100Z,55.67
2022-08-25T08:01:04.301Z,54.69
2022-08-25T08:04:06.158Z,54.33
2022-08-25T08:07:12.211Z,53.53
2022-08-25T08:13:41.318Z,54.96
2022-08-25T08:16:43.079Z,54.41
2022-08-25T08:19:45.456Z,53.22
2022-08-25T08:22:47.094Z,53.19
2022-08-25T08:25:49.314Z,52.95
2022-08-25T08:28:52.188Z,52.69
2022-08-25T08:31:53.838Z,51.85
2022-08-25T08:34:55.314Z,51.31
2022-08-25T08:37:57.001Z,51.39
2022-08-25T08:45:30.999Z,50.96
2022-08-25T08:48:35.189Z,50.72
2022-08-25T08:51:48.784Z,50.20
2022-08-25T08:54:58.425Z,49.95
2022-08-25T08:58:05.571Z,50.61
2022-08-25T09:01:10.515Z,51.03
2022-08-25T09:04:20.053Z,49.99
2022-08-25T09:07:30.046Z,50.10
2022-08-25T09:11:10.188Z,49.24
2022-08-25T09:14:38.396Z,50.10
2022-08-25T09:18:05.270Z,49.50
2022-08-25T09:21:20.925Z,49.47
2022-08-25T09:24:31.198Z,47.69
2022-08-25T09:27:46.063Z,47.02
2022-08-25T09:31:13.990Z,46.21
2022-08-25T09:34:28.406Z,45.60
2022-08-25T09:37:30.061Z,44.86
2022-08-25T09:40:39.022Z,45.26
2022-08-25T09:43:52.896Z,43.89
2022-08-25T09:47:06.063Z,44.29
2022-08-25T09:50:18.611Z,44.49
2022-08-25T09:53:21.983Z,44.11
2022-08-25T09:56:27.486Z,43.45
2022-08-25T09:59:34.888Z,43.42
2022-08-25T10:02:37.467Z,42.04
2022-08-25T10:05:58.931Z,41.60
2022-08-25T10:09:08.033Z,41.26
2022-08-25T10:12:24.961Z,40.99
2022-08-25T10:15:35.192Z,41.72
2022-08-25T10:18:37.087Z,41.96
2022-08-25T10:21:41.038Z,42.13
2022-08-25T10:24:43.976Z,43.11
2022-08-25T10:28:08.956Z,43.08
2022-08-25T10:31:32.970Z,41.97
2022-08-25T10:34:51.783Z,41.55
2022-08-25T10:38:13.704Z,41.54
2022-08-25T10:41:32.518Z,41.40
2022-08-25T10:45:16.707Z,42.64
2022-08-25T10:48:33.078Z,41.82
2022-08-25T10:51:56.203Z,41.19
2022-08-25T10:55:11.461Z,40.71
2022-08-25T10:58:38.102Z,40.27
2022-08-25T11:02:18.461Z,38.98
2022-08-25T11:05:41.171Z,38.39
2022-08-25T11:08:55.465Z,37.81
2022-08-25T11:12:10.250Z,37.67
2022-08-25T11:15:25.926Z,37.55
2022-08-25T11:18:31.746Z,37.93
2022-08-25T11:21:46.901Z,37.02
2022-08-25T11:24:54.984Z,36.18
2022-08-25T11:28:06.682Z,36.72
2022-08-25T11:31:10.308Z,36.75
2022-08-25T11:34:15.152Z,37.14
2022-08-25T11:37:31.796Z,36.69
2022-08-25T11:40:41.546Z,36.49
2022-08-25T11:43:56.277Z,36.05
2022-08-25T11:47:22.181Z,35.71
2022-08-25T11:50:29.861Z,36.47
2022-08-25T11:53:37.912Z,36.97
2022-08-25T11:56:52.806Z,37.93
2022-08-25T11:59:57.172Z,38.13
2022-08-25T12:03:01.547Z,37.93
2022-08-25T12:06:17.079Z,38.25
2022-08-25T12:09:21.321Z,37.88
2022-08-25T12:12:41.261Z,37.66
2022-08-25T12:15:42.863Z,37.47
2022-08-25T12:18:46.463Z,37.03
2022-08-25T12:21:48.322Z,38.18
2022-08-25T12:24:57.921Z,38.98
2022-08-25T12:28:09.729Z,37.82
2022-08-25T12:31:32.837Z,37.04
2022-08-25T12:35:03.659Z,36.39
2022-08-25T12:38:10.319Z,35.94
2022-08-25T12:41:16.150Z,35.85
2022-08-25T12:44:36.260Z,35.99
2022-08-25T12:47:41.843Z,35.77
2022-08-25T12:50:50.234Z,35.41
2022-08-25T12:53:59.465Z,35.91
2022-08-25T12:57:08.173Z,35.78
2022-08-25T13:04:19.438Z,35.18
2022-08-25T13:07:40.683Z,34.38
2022-08-25T13:10:45.784Z,34.12
2022-08-25T13:13:55.347Z,34.02
2022-08-25T13:16:59.437Z,33.97
2022-08-25T13:20:20.523Z,33.16
2022-08-25T13:23:27.158Z,32.97
2022-08-25T13:26:47.294Z,33.10
2022-08-25T13:29:59.875Z,33.03
2022-08-25T13:33:21.899Z,32.21
2022-08-25T13:36:47.107Z,31.61
2022-08-25T13:40:17.796Z,31.74
2022-08-25T13:43:22.503Z,32.24
2022-08-25T13:46:29.803Z,32.04
2022-08-25T13:49:31.681Z,31.74
2022-08-25T13:52:33.384Z,32.66
2022-08-25T13:55:51.105Z,33.04
2022-08-25T13:58:54.998Z,32.66
2022-08-25T14:01:59.876Z,33.25
2022-08-25T14:05:01.496Z,34.18
2022-08-25T14:08:16.034Z,33.50
2022-08-25T14:11:27.706Z,32.51
2022-08-25T14:14:33.786Z,31.92
2022-08-25T14:17:40.212Z,31.63
2022-08-25T14:20:52.004Z,31.73
2022-08-25T14:23:55.226Z,31.47
2022-08-25T14:26:56.695Z,31.05
2022-08-25T14:29:58.311Z,31.32
2022-08-25T14:33:02.069Z,30.58
2022-08-25T14:36:04.904Z,30.33
2022-08-25T14:39:08.710Z,29.48
2022-08-25T14:42:11.724Z,29.42
2022-08-25T14:45:15.042Z,30.29
2022-08-25T14:48:25.234Z,29.88
2022-08-25T14:51:28.841Z,29.95
2022-08-25T14:54:33.623Z,30.21
2022-08-25T14:57:37.386Z,30.57
2022-08-25T15:00:44.595Z,30.08
2022-08-25T15:03:48.715Z,29.43
2022-08-25T15:06:56.313Z,29.30
2022-08-25T15:09:57.772Z,28.99
2022-08-25T15:13:00.437Z,29.03
2022-08-25T15:16:02.177Z,29.05
2022-08-25T15:19:09.774Z,28.65
2022-08-25T15:22:11.339Z,28.50
2022-08-25T15:25:12.801Z,28.98
2022-08-25T15:28:17.063Z,29.01
2022-08-25T15:31:21.182Z,28.65
2022-08-25T15:34:22.643Z,29.36
2022-08-25T15:37:24.122Z,29.04
2022-08-25T15:40:26.380Z,28.46
2022-08-25T15:43:27.998Z,27.75
2022-08-25T15:46:30.273Z,27.69
2022-08-25T15:49:32.071Z,27.47
2022-08-25T15:52:44.529Z,26.91
2022-08-25T15:55:49.378Z,27.96
2022-08-25T15:58:55.726Z,28.21
2022-08-25T16:01:57.631Z,27.68
2022-08-25T16:04:59.152Z,27.63
2022-08-25T16:08:00.571Z,27.94
2022-08-25T16:11:04.773Z,27.69
2022-08-25T16:14:09.207Z,28.25
2022-08-25T16:17:10.622Z,28.28
2022-08-25T16:20:12.640Z,28.84
2022-08-25T16:23:17.427Z,28.71
2022-08-25T16:26:18.896Z,28.04
2022-08-25T16:29:20.432Z,28.64
2022-08-25T16:32:22.672Z,28.35
2022-08-25T16:35:24.206Z,28.39
2022-08-25T16:38:25.664Z,28.90
2022-08-25T16:41:34.038Z,28.94
2022-08-25T16:44:35.577Z,30.08
2022-08-25T16:47:38.040Z,30.26
2022-08-25T16:50:39.610Z,30.19
2022-08-25T16:54:01.549Z,30.08
2022-08-25T16:57:03.161Z,30.42
2022-08-25T17:00:07.928Z,30.44
2022-08-25T17:03:11.562Z,30.65
2022-08-25T17:06:14.108Z,31.00
2022-08-25T17:09:22.745Z,30.87
2022-08-25T17:12:26.572Z,30.53
2022-08-25T17:15:28.053Z,30.96
2022-08-25T17:18:29.746Z,30.96
2022-08-25T17:21:35.315Z,30.88
2022-08-25T17:24:37.601Z,31.07
2022-08-25T17:27:41.981Z,30.96
2022-08-25T17:30:44.758Z,31.33
2022-08-25T17:33:46.999Z,31.79
2022-08-25T17:36:51.285Z,31.56
2022-08-25T17:40:02.687Z,32.00
2022-08-25T17:43:04.892Z,31.99
2022-08-25T17:46:12.196Z,32.23
2022-08-25T17:49:15.481Z,32.36
2022-08-25T17:52:17.125Z,32.29
2022-08-25T17:55:22.737Z,32.59
2022-08-25T17:58:24.162Z,32.64
2022-08-25T18:01:31.684Z,32.91
2022-08-25T18:04:33.162Z,33.13
2022-08-25T18:07:35.666Z,33.08
2022-08-25T18:10:37.117Z,33.54
2022-08-25T18:13:38.906Z,33.58
2022-08-25T18:16:40.735Z,33.84
2022-08-25T18:19:43.622Z,33.94
2022-08-25T18:22:45.044Z,34.50
2022-08-25T18:25:48.949Z,34.79
2022-08-25T18:28:50.362Z,34.92
2022-08-25T18:31:53.658Z,36.12
2022-08-25T18:34:57.604Z,36.26
2022-08-25T18:38:18.005Z,36.85
2022-08-25T18:41:22.672Z,37.53
2022-08-25T18:44:24.091Z,37.09
2022-08-25T18:47:25.504Z,37.45
2022-08-25T18:50:29.040Z,38.31
2022-08-25T18:53:37.522Z,38.19
2022-08-25T18:56:53.232Z,38.27
2022-08-25T18:59:55.460Z,38.44
2022-08-25T19:02:58.771Z,38.23
2022-08-25T19:06:02.444Z,38.73
2022-08-25T19:09:04.128Z,39.19
2022-08-25T19:12:05.751Z,39.78
2022-08-25T19:15:07.751Z,40.42
2022-08-25T19:18:10.908Z,40.56
2022-08-25T19:21:12.658Z,40.48
2022-08-25T19:24:14.460Z,40.59
2022-08-25T19:27:18.177Z,41.21
2022-08-25T19:30:26.232Z,40.82
2022-08-25T19:33:31.300Z,41.53
2022-08-25T19:36:47.014Z,41.40
2022-08-25T19:39:52.811Z,41.95
2022-08-25T19:42:54.954Z,42.40
2022-08-25T19:45:56.654Z,42.55
2022-08-25T19:48:58.504Z,42.07
2022-08-25T19:52:05.347Z,42.34
2022-08-25T19:55:12.538Z,43.06
2022-08-25T19:58:14.928Z,43.33
2022-08-25T20:01:18.424Z,43.61
2022-08-25T20:04:20.950Z,43.75
2022-08-25T20:07:28.057Z,43.59
2022-08-25T20:10:31.724Z,44.33
2022-08-25T20:13:33.216Z,44.28
2022-08-25T20:16:36.127Z,44.53
2022-08-25T20:19:37.570Z,45.16
2022-08-25T20:22:41.557Z,45.25
2022-08-25T20:25:44.582Z,45.24
2022-08-25T20:28:46.110Z,45.11
2022-08-25T20:31:48.055Z,45.28
2022-08-25T20:34:49.971Z,45.52
2022-08-25T20:37:53.153Z,45.48
2022-08-25T20:40:54.704Z,45.27
2022-08-25T20:43:56.448Z,45.78
2022-08-25T20:46:59.222Z,45.06
2022-08-25T20:50:05.945Z,45.18
2022-08-25T20:53:10.281Z,45.44
2022-08-25T20:56:17.260Z,45.53
2022-08-25T20:59:18.818Z,45.75
2022-08-25T21:02:22.509Z,45.21
2022-08-25T21:05:23.951Z,45.84
2022-08-25T21:08:25.543Z,45.37
2022-08-25T21:11:27.239Z,45.28
2022-08-25T21:14:29.733Z,45.33
2022-08-25T21:17:31.162Z,45.13
2022-08-25T21:20:34.685Z,45.34
2022-08-25T21:23:36.402Z,45.48
2022-08-25T21:26:48.514Z,45.95
2022-08-25T21:29:54.709Z,46.08
2022-08-25T21:32:56.750Z,46.53
2022-08-25T21:35:58.178Z,46.84
2022-08-25T21:39:00.576Z,47.13
2022-08-25T21:42:03.328Z,46.85
2022-08-25T21:45:04.969Z,47.17
2022-08-25T21:48:12.599Z,47.08
2022-08-25T21:51:19.120Z,46.90
2022-08-25T21:54:24.182Z,46.79
2022-08-25T21:57:25.668Z,46.78
2022-08-25T22:00:27.293Z,47.32
2022-08-25T22:03:28.717Z,47.57
2022-08-25T22:06:30.417Z,47.75
2022-08-25T22:09:31.885Z,47.88
2022-08-25T22:12:33.279Z,47.57
2022-08-25T22:15:34.746Z,47.98
2022-08-25T22:18:36.529Z,47.85
2022-08-25T22:21:40.614Z,48.49
2022-08-25T22:24:42.086Z,48.10
2022-08-25T22:27:43.606Z,48.16
2022-08-25T22:30:45.507Z,49.17
2022-08-25T22:33:49.543Z,48.19
2022-08-25T22:36:51.014Z,49.10
2022-08-25T22:40:02.747Z,49.01
2022-08-25T22:43:07.347Z,48.84
2022-08-25T22:46:12.774Z,49.36
2022-08-25T22:49:14.420Z,48.70
2022-08-25T22:52:15.842Z,49.29
2022-08-25T22:55:17.640Z,49.62
2022-08-25T22:58:23.392Z,49.90
2022-08-25T23:01:24.827Z,49.60
2022-08-25T23:04:26.358Z,49.44
2022-08-25T23:07:28.091Z,49.39
2022-08-25T23:10:29.531Z,50.18
2022-08-25T23:13:34.611Z,49.61
2022-08-25T23:16:38.250Z,50.12
2022-08-25T23:19:39.755Z,49.49
2022-08-25T23:22:42.127Z,49.69
2022-08-25T23:25:44.153Z,50.68
2022-08-25T23:28:46.527Z,51.05
2022-08-25T23:31:48.161Z,50.52
2022-08-25T23:34:49.780Z,50.54
2022-08-25T23:37:51.370Z,51.64
2022-08-25T23:40:53.537Z,51.15
2022-08-25T23:43:55.824Z,51.06
2022-08-25T23:46:57.846Z,51.36
2022-08-25T23:49:59.493Z,51.99
2022-08-25T23:53:01.353Z,52.66
2022-08-25T23:56:05.716Z,53.07
2022-08-25T23:59:08.557Z,53.98
